sensor_id;sensor_type;location;lat;lon;timestamp;P1;durP1;ratioP1;P2;durP2;ratioP2
76795;SDS011;65745;50.278;18.192;2022-12-18T00:01:35;18.40;;;13.30;;
76795;SDS011;65745;50.278;18.192;2022-12-18T00:04:14;22.40;;;13.60;;
76795;SDS011;65745;50.278;18.192;2022-12-18T00:06:50;18.00;;;12.50;;
76795;SDS011;65745;50.278;18.192;2022-12-18T00:09:23;18.60;;;12.70;;
76795;SDS011;65745;50.278;18.192;2022-12-18T00:12:08;18.60;;;13.70;;
76795;SDS011;65745;50.278;18.192;2022-12-18T00:14:46;17.90;;;12.60;;
76795;SDS011;65745;50.278;18.192;2022-12-18T00:17:18;17.50;;;12.90;;
76795;SDS011;65745;50.278;18.192;2022-12-18T00:19:51;17.20;;;12.80;;
76795;SDS011;65745;50.278;18.192;2022-12-18T00:22:23;17.10;;;12.30;;
76795;SDS011;65745;50.278;18.192;2022-12-18T00:24:55;17.50;;;12.60;;
76795;SDS011;65745;50.278;18.192;2022-12-18T00:27:28;17.60;;;12.50;;
76795;SDS011;65745;50.278;18.192;2022-12-18T00:30:00;17.50;;;12.20;;
76795;SDS011;65745;50.278;18.192;2022-12-18T00:32:33;18.30;;;13.00;;
76795;SDS011;65745;50.278;18.192;2022-12-18T00:35:06;15.00;;;11.00;;
76795;SDS011;65745;50.278;18.192;2022-12-18T00:37:39;17.30;;;11.50;;
76795;SDS011;65745;50.278;18.192;2022-12-18T00:40:13;16.80;;;12.00;;
76795;SDS011;65745;50.278;18.192;2022-12-18T00:42:46;17.40;;;11.60;;
76795;SDS011;65745;50.278;18.192;2022-12-18T00:45:28;16.60;;;11.50;;
76795;SDS011;65745;50.278;18.192;2022-12-18T00:48:01;18.20;;;12.60;;
76795;SDS011;65745;50.278;18.192;2022-12-18T00:50:33;16.70;;;12.20;;
76795;SDS011;65745;50.278;18.192;2022-12-18T00:53:05;16.30;;;11.50;;
76795;SDS011;65745;50.278;18.192;2022-12-18T00:55:40;15.40;;;11.10;;
76795;SDS011;65745;50.278;18.192;2022-12-18T00:58:13;15.70;;;10.80;;
76795;SDS011;65745;50.278;18.192;2022-12-18T01:00:46;16.20;;;11.00;;
76795;SDS011;65745;50.278;18.192;2022-12-18T01:03:18;14.40;;;10.60;;
76795;SDS011;65745;50.278;18.192;2022-12-18T01:05:51;16.40;;;11.20;;
76795;SDS011;65745;50.278;18.192;2022-12-18T01:08:24;16.60;;;10.50;;
76795;SDS011;65745;50.278;18.192;2022-12-18T01:10:56;14.50;;;10.60;;
76795;SDS011;65745;50.278;18.192;2022-12-18T01:13:28;14.60;;;10.70;;
76795;SDS011;65745;50.278;18.192;2022-12-18T01:16:01;15.80;;;10.40;;
76795;SDS011;65745;50.278;18.192;2022-12-18T01:18:35;15.00;;;11.00;;
76795;SDS011;65745;50.278;18.192;2022-12-18T01:21:08;14.70;;;10.30;;
76795;SDS011;65745;50.278;18.192;2022-12-18T01:23:44;15.30;;;10.40;;
76795;SDS011;65745;50.278;18.192;2022-12-18T01:26:18;13.20;;;10.20;;
76795;SDS011;65745;50.278;18.192;2022-12-18T01:28:53;16.10;;;10.80;;
76795;SDS011;65745;50.278;18.192;2022-12-18T01:31:26;15.50;;;11.40;;
76795;SDS011;65745;50.278;18.192;2022-12-18T01:34:01;14.00;;;9.50;;
76795;SDS011;65745;50.278;18.192;2022-12-18T01:36:37;13.20;;;9.90;;
76795;SDS011;65745;50.278;18.192;2022-12-18T01:39:11;14.50;;;10.10;;
76795;SDS011;65745;50.278;18.192;2022-12-18T01:41:45;14.80;;;10.60;;
76795;SDS011;65745;50.278;18.192;2022-12-18T01:47:27;13.80;;;10.30;;
76795;SDS011;65745;50.278;18.192;2022-12-18T01:50:04;13.90;;;9.80;;
76795;SDS011;65745;50.278;18.192;2022-12-18T01:52:42;14.80;;;9.40;;
76795;SDS011;65745;50.278;18.192;2022-12-18T01:55:18;14.70;;;10.60;;
76795;SDS011;65745;50.278;18.192;2022-12-18T01:57:53;14.20;;;10.00;;
76795;SDS011;65745;50.278;18.192;2022-12-18T02:00:27;13.90;;;10.00;;
76795;SDS011;65745;50.278;18.192;2022-12-18T02:03:00;14.10;;;10.50;;
76795;SDS011;65745;50.278;18.192;2022-12-18T02:05:36;13.30;;;10.10;;
76795;SDS011;65745;50.278;18.192;2022-12-18T02:08:15;12.90;;;9.80;;
76795;SDS011;65745;50.278;18.192;2022-12-18T02:10:54;13.70;;;10.20;;
76795;SDS011;65745;50.278;18.192;2022-12-18T02:13:38;14.10;;;9.60;;
76795;SDS011;65745;50.278;18.192;2022-12-18T02:18:53;13.00;;;8.50;;
76795;SDS011;65745;50.278;18.192;2022-12-18T02:21:31;12.20;;;8.90;;
76795;SDS011;65745;50.278;18.192;2022-12-18T02:24:12;11.80;;;8.80;;
76795;SDS011;65745;50.278;18.192;2022-12-18T02:26:59;13.00;;;9.40;;
76795;SDS011;65745;50.278;18.192;2022-12-18T02:29:36;13.40;;;9.10;;
76795;SDS011;65745;50.278;18.192;2022-12-18T02:32:13;12.80;;;8.80;;
76795;SDS011;65745;50.278;18.192;2022-12-18T02:34:50;12.10;;;9.30;;
76795;SDS011;65745;50.278;18.192;2022-12-18T02:37:24;12.00;;;8.30;;
76795;SDS011;65745;50.278;18.192;2022-12-18T02:40:02;14.10;;;9.60;;
76795;SDS011;65745;50.278;18.192;2022-12-18T02:42:37;11.80;;;8.70;;
76795;SDS011;65745;50.278;18.192;2022-12-18T02:45:10;13.60;;;10.70;;
76795;SDS011;65745;50.278;18.192;2022-12-18T02:47:43;11.90;;;8.90;;
76795;SDS011;65745;50.278;18.192;2022-12-18T02:50:22;13.00;;;8.60;;
76795;SDS011;65745;50.278;18.192;2022-12-18T02:53:03;12.50;;;9.30;;
76795;SDS011;65745;50.278;18.192;2022-12-18T02:55:45;12.10;;;8.50;;
76795;SDS011;65745;50.278;18.192;2022-12-18T02:58:26;12.90;;;9.00;;
76795;SDS011;65745;50.278;18.192;2022-12-18T03:01:09;12.80;;;9.30;;
76795;SDS011;65745;50.278;18.192;2022-12-18T03:03:46;12.40;;;8.50;;
76795;SDS011;65745;50.278;18.192;2022-12-18T03:06:23;14.40;;;9.90;;
76795;SDS011;65745;50.278;18.192;2022-12-18T03:09:01;12.70;;;8.40;;
76795;SDS011;65745;50.278;18.192;2022-12-18T03:11:38;11.00;;;7.90;;
76795;SDS011;65745;50.278;18.192;2022-12-18T03:14:31;11.20;;;8.00;;
76795;SDS011;65745;50.278;18.192;2022-12-18T03:17:17;11.50;;;8.00;;
76795;SDS011;65745;50.278;18.192;2022-12-18T03:19:52;12.00;;;9.30;;
76795;SDS011;65745;50.278;18.192;2022-12-18T03:22:29;11.00;;;8.20;;
76795;SDS011;65745;50.278;18.192;2022-12-18T03:25:05;9.60;;;7.50;;
76795;SDS011;65745;50.278;18.192;2022-12-18T03:27:41;10.80;;;7.90;;
76795;SDS011;65745;50.278;18.192;2022-12-18T03:30:17;11.50;;;8.40;;
76795;SDS011;65745;50.278;18.192;2022-12-18T03:32:50;12.20;;;8.70;;
76795;SDS011;65745;50.278;18.192;2022-12-18T03:35:29;12.90;;;8.20;;
76795;SDS011;65745;50.278;18.192;2022-12-18T03:38:06;12.20;;;8.10;;
76795;SDS011;65745;50.278;18.192;2022-12-18T03:40:43;9.90;;;5.70;;
76795;SDS011;65745;50.278;18.192;2022-12-18T03:43:24;12.70;;;8.60;;
76795;SDS011;65745;50.278;18.192;2022-12-18T03:46:08;11.40;;;8.40;;
76795;SDS011;65745;50.278;18.192;2022-12-18T03:48:52;10.60;;;8.40;;
76795;SDS011;65745;50.278;18.192;2022-12-18T03:51:36;10.60;;;8.20;;
76795;SDS011;65745;50.278;18.192;2022-12-18T03:54:13;12.30;;;8.20;;
76795;SDS011;65745;50.278;18.192;2022-12-18T03:56:54;10.90;;;7.70;;
76795;SDS011;65745;50.278;18.192;2022-12-18T03:59:31;11.70;;;7.60;;
76795;SDS011;65745;50.278;18.192;2022-12-18T04:02:05;12.80;;;9.00;;
76795;SDS011;65745;50.278;18.192;2022-12-18T04:04:39;11.50;;;8.40;;
76795;SDS011;65745;50.278;18.192;2022-12-18T04:07:13;11.90;;;8.20;;
76795;SDS011;65745;50.278;18.192;2022-12-18T04:09:46;10.20;;;7.70;;
76795;SDS011;65745;50.278;18.192;2022-12-18T04:12:25;10.90;;;8.60;;
76795;SDS011;65745;50.278;18.192;2022-12-18T04:14:59;11.00;;;7.50;;
76795;SDS011;65745;50.278;18.192;2022-12-18T04:17:32;11.30;;;8.00;;
76795;SDS011;65745;50.278;18.192;2022-12-18T04:20:05;11.00;;;7.90;;
76795;SDS011;65745;50.278;18.192;2022-12-18T04:25:13;10.70;;;7.10;;
76795;SDS011;65745;50.278;18.192;2022-12-18T04:27:55;11.10;;;7.90;;
76795;SDS011;65745;50.278;18.192;2022-12-18T04:30:27;10.50;;;8.10;;
76795;SDS011;65745;50.278;18.192;2022-12-18T04:32:59;11.10;;;8.20;;
76795;SDS011;65745;50.278;18.192;2022-12-18T04:35:32;10.60;;;7.30;;
76795;SDS011;65745;50.278;18.192;2022-12-18T04:38:04;11.10;;;7.80;;
76795;SDS011;65745;50.278;18.192;2022-12-18T04:40:38;11.40;;;8.00;;
76795;SDS011;65745;50.278;18.192;2022-12-18T04:43:17;10.40;;;7.80;;
76795;SDS011;65745;50.278;18.192;2022-12-18T04:45:49;11.90;;;8.60;;
76795;SDS011;65745;50.278;18.192;2022-12-18T04:48:21;9.60;;;8.10;;
76795;SDS011;65745;50.278;18.192;2022-12-18T04:50:53;11.10;;;7.50;;
76795;SDS011;65745;50.278;18.192;2022-12-18T04:53:25;9.20;;;7.40;;
76795;SDS011;65745;50.278;18.192;2022-12-18T04:56:04;11.10;;;8.20;;
76795;SDS011;65745;50.278;18.192;2022-12-18T04:58:39;11.00;;;8.10;;
76795;SDS011;65745;50.278;18.192;2022-12-18T05:01:16;10.80;;;7.60;;
76795;SDS011;65745;50.278;18.192;2022-12-18T05:03:48;10.00;;;7.70;;
76795;SDS011;65745;50.278;18.192;2022-12-18T05:06:22;11.50;;;8.70;;
76795;SDS011;65745;50.278;18.192;2022-12-18T05:08:54;11.80;;;8.10;;
76795;SDS011;65745;50.278;18.192;2022-12-18T05:11:27;10.50;;;7.90;;
76795;SDS011;65745;50.278;18.192;2022-12-18T05:13:59;11.40;;;8.20;;
76795;SDS011;65745;50.278;18.192;2022-12-18T05:16:31;11.00;;;7.90;;
76795;SDS011;65745;50.278;18.192;2022-12-18T05:19:03;11.30;;;7.70;;
76795;SDS011;65745;50.278;18.192;2022-12-18T05:21:35;9.00;;;7.10;;
76795;SDS011;65745;50.278;18.192;2022-12-18T05:24:07;9.90;;;7.70;;
76795;SDS011;65745;50.278;18.192;2022-12-18T05:26:39;10.60;;;8.10;;
76795;SDS011;65745;50.278;18.192;2022-12-18T05:29:11;13.00;;;8.30;;
76795;SDS011;65745;50.278;18.192;2022-12-18T05:31:43;10.90;;;7.70;;
76795;SDS011;65745;50.278;18.192;2022-12-18T05:34:16;10.70;;;7.60;;
76795;SDS011;65745;50.278;18.192;2022-12-18T05:36:48;11.70;;;8.70;;
76795;SDS011;65745;50.278;18.192;2022-12-18T05:39:20;10.20;;;7.50;;
76795;SDS011;65745;50.278;18.192;2022-12-18T05:41:52;10.90;;;7.50;;
76795;SDS011;65745;50.278;18.192;2022-12-18T05:44:24;10.00;;;8.00;;
76795;SDS011;65745;50.278;18.192;2022-12-18T05:46:56;10.80;;;8.20;;
76795;SDS011;65745;50.278;18.192;2022-12-18T05:49:28;10.80;;;8.10;;
76795;SDS011;65745;50.278;18.192;2022-12-18T05:52:00;12.80;;;8.70;;
76795;SDS011;65745;50.278;18.192;2022-12-18T05:54:32;11.10;;;8.50;;
76795;SDS011;65745;50.278;18.192;2022-12-18T05:57:05;10.50;;;7.70;;
76795;SDS011;65745;50.278;18.192;2022-12-18T05:59:37;11.10;;;8.40;;
76795;SDS011;65745;50.278;18.192;2022-12-18T06:02:09;11.30;;;8.40;;
76795;SDS011;65745;50.278;18.192;2022-12-18T06:04:41;12.60;;;8.60;;
76795;SDS011;65745;50.278;18.192;2022-12-18T06:07:13;11.20;;;8.40;;
76795;SDS011;65745;50.278;18.192;2022-12-18T06:09:45;10.20;;;8.10;;
76795;SDS011;65745;50.278;18.192;2022-12-18T06:12:17;11.90;;;8.60;;
76795;SDS011;65745;50.278;18.192;2022-12-18T06:14:50;11.10;;;8.40;;
76795;SDS011;65745;50.278;18.192;2022-12-18T06:17:22;10.90;;;8.50;;
76795;SDS011;65745;50.278;18.192;2022-12-18T06:19:57;11.00;;;8.30;;
76795;SDS011;65745;50.278;18.192;2022-12-18T06:22:31;11.80;;;8.70;;
76795;SDS011;65745;50.278;18.192;2022-12-18T06:25:04;12.20;;;8.50;;
76795;SDS011;65745;50.278;18.192;2022-12-18T06:27:38;11.30;;;8.60;;
76795;SDS011;65745;50.278;18.192;2022-12-18T06:30:12;12.20;;;8.70;;
76795;SDS011;65745;50.278;18.192;2022-12-18T06:32:44;10.40;;;8.50;;
76795;SDS011;65745;50.278;18.192;2022-12-18T06:35:24;11.10;;;7.50;;
76795;SDS011;65745;50.278;18.192;2022-12-18T06:37:56;10.90;;;8.10;;
76795;SDS011;65745;50.278;18.192;2022-12-18T06:40:28;10.60;;;7.80;;
76795;SDS011;65745;50.278;18.192;2022-12-18T06:43:00;11.20;;;8.90;;
76795;SDS011;65745;50.278;18.192;2022-12-18T06:45:32;12.70;;;9.00;;
76795;SDS011;65745;50.278;18.192;2022-12-18T06:48:05;12.50;;;9.10;;
76795;SDS011;65745;50.278;18.192;2022-12-18T06:50:41;10.30;;;8.30;;
76795;SDS011;65745;50.278;18.192;2022-12-18T06:53:13;11.80;;;8.60;;
76795;SDS011;65745;50.278;18.192;2022-12-18T06:55:45;11.00;;;8.60;;
76795;SDS011;65745;50.278;18.192;2022-12-18T06:58:17;11.80;;;9.10;;
76795;SDS011;65745;50.278;18.192;2022-12-18T07:00:49;11.00;;;8.20;;
76795;SDS011;65745;50.278;18.192;2022-12-18T07:03:22;11.10;;;8.50;;
76795;SDS011;65745;50.278;18.192;2022-12-18T07:05:54;10.70;;;7.80;;
76795;SDS011;65745;50.278;18.192;2022-12-18T07:08:26;10.70;;;7.90;;
76795;SDS011;65745;50.278;18.192;2022-12-18T07:10:58;10.60;;;9.00;;
76795;SDS011;65745;50.278;18.192;2022-12-18T07:13:33;10.90;;;9.00;;
76795;SDS011;65745;50.278;18.192;2022-12-18T07:16:07;13.20;;;9.70;;
76795;SDS011;65745;50.278;18.192;2022-12-18T07:18:49;11.50;;;8.70;;
76795;SDS011;65745;50.278;18.192;2022-12-18T07:21:22;12.40;;;8.80;;
76795;SDS011;65745;50.278;18.192;2022-12-18T07:23:54;12.00;;;9.00;;
76795;SDS011;65745;50.278;18.192;2022-12-18T07:26:26;12.00;;;9.20;;
76795;SDS011;65745;50.278;18.192;2022-12-18T07:28:58;11.50;;;8.80;;
76795;SDS011;65745;50.278;18.192;2022-12-18T07:31:31;11.30;;;9.00;;
76795;SDS011;65745;50.278;18.192;2022-12-18T07:34:03;13.00;;;9.80;;
76795;SDS011;65745;50.278;18.192;2022-12-18T07:36:35;11.90;;;8.70;;
76795;SDS011;65745;50.278;18.192;2022-12-18T07:39:07;12.90;;;9.10;;
76795;SDS011;65745;50.278;18.192;2022-12-18T07:41:40;11.60;;;9.00;;
76795;SDS011;65745;50.278;18.192;2022-12-18T07:44:17;11.70;;;8.60;;
76795;SDS011;65745;50.278;18.192;2022-12-18T07:46:49;14.30;;;9.90;;
76795;SDS011;65745;50.278;18.192;2022-12-18T07:49:21;12.20;;;9.40;;
76795;SDS011;65745;50.278;18.192;2022-12-18T07:51:54;12.50;;;8.60;;
76795;SDS011;65745;50.278;18.192;2022-12-18T07:54:27;13.10;;;9.40;;
76795;SDS011;65745;50.278;18.192;2022-12-18T07:56:59;12.30;;;9.10;;
76795;SDS011;65745;50.278;18.192;2022-12-18T07:59:31;12.00;;;9.60;;
76795;SDS011;65745;50.278;18.192;2022-12-18T08:02:03;13.40;;;9.90;;
76795;SDS011;65745;50.278;18.192;2022-12-18T08:04:36;13.10;;;9.20;;
76795;SDS011;65745;50.278;18.192;2022-12-18T08:07:08;13.50;;;9.30;;
76795;SDS011;65745;50.278;18.192;2022-12-18T08:09:40;12.70;;;8.70;;
76795;SDS011;65745;50.278;18.192;2022-12-18T08:12:12;12.90;;;9.50;;
76795;SDS011;65745;50.278;18.192;2022-12-18T08:14:44;13.70;;;9.80;;
76795;SDS011;65745;50.278;18.192;2022-12-18T08:17:16;15.40;;;10.50;;
76795;SDS011;65745;50.278;18.192;2022-12-18T08:19:49;12.10;;;9.60;;
76795;SDS011;65745;50.278;18.192;2022-12-18T08:22:21;11.90;;;9.10;;
76795;SDS011;65745;50.278;18.192;2022-12-18T08:24:53;14.40;;;9.70;;
76795;SDS011;65745;50.278;18.192;2022-12-18T08:27:25;13.90;;;9.30;;
76795;SDS011;65745;50.278;18.192;2022-12-18T08:29:58;12.50;;;9.30;;
76795;SDS011;65745;50.278;18.192;2022-12-18T08:32:30;12.50;;;9.40;;
76795;SDS011;65745;50.278;18.192;2022-12-18T08:35:03;13.20;;;9.50;;
76795;SDS011;65745;50.278;18.192;2022-12-18T08:37:38;11.00;;;8.70;;
76795;SDS011;65745;50.278;18.192;2022-12-18T08:40:11;13.20;;;9.20;;
76795;SDS011;65745;50.278;18.192;2022-12-18T08:42:43;13.70;;;9.80;;
76795;SDS011;65745;50.278;18.192;2022-12-18T08:45:33;14.10;;;9.30;;
76795;SDS011;65745;50.278;18.192;2022-12-18T08:48:06;12.40;;;9.40;;
76795;SDS011;65745;50.278;18.192;2022-12-18T08:50:38;12.20;;;9.00;;
76795;SDS011;65745;50.278;18.192;2022-12-18T08:53:10;13.80;;;9.80;;
76795;SDS011;65745;50.278;18.192;2022-12-18T08:55:42;12.80;;;9.60;;
76795;SDS011;65745;50.278;18.192;2022-12-18T08:58:18;14.40;;;9.10;;
76795;SDS011;65745;50.278;18.192;2022-12-18T09:00:50;14.70;;;10.20;;
76795;SDS011;65745;50.278;18.192;2022-12-18T09:03:22;14.50;;;10.00;;
76795;SDS011;65745;50.278;18.192;2022-12-18T09:05:54;14.20;;;9.60;;
76795;SDS011;65745;50.278;18.192;2022-12-18T09:08:27;12.60;;;9.50;;
76795;SDS011;65745;50.278;18.192;2022-12-18T09:10:59;16.60;;;10.40;;
76795;SDS011;65745;50.278;18.192;2022-12-18T09:13:32;14.40;;;9.80;;
76795;SDS011;65745;50.278;18.192;2022-12-18T09:16:04;14.90;;;10.60;;
76795;SDS011;65745;50.278;18.192;2022-12-18T09:18:37;15.60;;;10.20;;
76795;SDS011;65745;50.278;18.192;2022-12-18T09:21:11;12.90;;;9.30;;
76795;SDS011;65745;50.278;18.192;2022-12-18T09:23:48;15.00;;;9.90;;
76795;SDS011;65745;50.278;18.192;2022-12-18T09:26:21;14.40;;;10.10;;
76795;SDS011;65745;50.278;18.192;2022-12-18T09:28:54;12.40;;;8.90;;
76795;SDS011;65745;50.278;18.192;2022-12-18T09:31:26;14.70;;;9.90;;
76795;SDS011;65745;50.278;18.192;2022-12-18T09:33:58;14.60;;;10.00;;
76795;SDS011;65745;50.278;18.192;2022-12-18T09:36:30;14.00;;;10.30;;
76795;SDS011;65745;50.278;18.192;2022-12-18T09:39:02;15.50;;;11.00;;
76795;SDS011;65745;50.278;18.192;2022-12-18T09:41:39;14.30;;;10.40;;
76795;SDS011;65745;50.278;18.192;2022-12-18T09:44:19;11.80;;;9.10;;
76795;SDS011;65745;50.278;18.192;2022-12-18T09:47:02;14.70;;;10.10;;
76795;SDS011;65745;50.278;18.192;2022-12-18T09:49:42;13.40;;;9.30;;
76795;SDS011;65745;50.278;18.192;2022-12-18T09:52:17;13.20;;;9.60;;
76795;SDS011;65745;50.278;18.192;2022-12-18T09:54:55;13.70;;;9.60;;
76795;SDS011;65745;50.278;18.192;2022-12-18T09:57:32;15.20;;;10.30;;
76795;SDS011;65745;50.278;18.192;2022-12-18T10:00:16;13.60;;;9.70;;
76795;SDS011;65745;50.278;18.192;2022-12-18T10:02:50;14.60;;;10.00;;
76795;SDS011;65745;50.278;18.192;2022-12-18T10:05:29;13.90;;;10.20;;
76795;SDS011;65745;50.278;18.192;2022-12-18T10:08:09;13.40;;;9.70;;
76795;SDS011;65745;50.278;18.192;2022-12-18T10:10:47;16.20;;;10.80;;
76795;SDS011;65745;50.278;18.192;2022-12-18T10:13:24;16.40;;;10.70;;
76795;SDS011;65745;50.278;18.192;2022-12-18T10:16:09;12.50;;;9.40;;
76795;SDS011;65745;50.278;18.192;2022-12-18T10:18:54;15.50;;;10.80;;
76795;SDS011;65745;50.278;18.192;2022-12-18T10:21:36;15.30;;;10.10;;
76795;SDS011;65745;50.278;18.192;2022-12-18T10:24:16;13.50;;;9.90;;
76795;SDS011;65745;50.278;18.192;2022-12-18T10:26:55;13.90;;;9.80;;
76795;SDS011;65745;50.278;18.192;2022-12-18T10:29:39;15.80;;;11.00;;
76795;SDS011;65745;50.278;18.192;2022-12-18T10:32:14;15.00;;;10.00;;
76795;SDS011;65745;50.278;18.192;2022-12-18T10:34:49;17.10;;;10.40;;
76795;SDS011;65745;50.278;18.192;2022-12-18T10:37:29;15.30;;;10.00;;
76795;SDS011;65745;50.278;18.192;2022-12-18T10:40:09;16.20;;;10.90;;
76795;SDS011;65745;50.278;18.192;2022-12-18T10:42:55;14.60;;;10.00;;
76795;SDS011;65745;50.278;18.192;2022-12-18T10:45:35;14.20;;;10.50;;
76795;SDS011;65745;50.278;18.192;2022-12-18T10:48:18;13.80;;;9.80;;
76795;SDS011;65745;50.278;18.192;2022-12-18T10:50:52;14.20;;;10.40;;
76795;SDS011;65745;50.278;18.192;2022-12-18T10:53:41;14.40;;;10.00;;
76795;SDS011;65745;50.278;18.192;2022-12-18T10:56:21;15.80;;;10.70;;
76795;SDS011;65745;50.278;18.192;2022-12-18T10:59:00;15.40;;;10.50;;
76795;SDS011;65745;50.278;18.192;2022-12-18T11:01:46;15.30;;;11.50;;
76795;SDS011;65745;50.278;18.192;2022-12-18T11:04:22;14.60;;;9.80;;
76795;SDS011;65745;50.278;18.192;2022-12-18T11:06:57;14.60;;;10.30;;
76795;SDS011;65745;50.278;18.192;2022-12-18T11:09:32;15.90;;;10.60;;
76795;SDS011;65745;50.278;18.192;2022-12-18T11:12:18;15.70;;;11.20;;
76795;SDS011;65745;50.278;18.192;2022-12-18T11:14:53;15.60;;;10.50;;
76795;SDS011;65745;50.278;18.192;2022-12-18T11:17:29;14.80;;;11.00;;
76795;SDS011;65745;50.278;18.192;2022-12-18T11:20:05;14.50;;;9.70;;
76795;SDS011;65745;50.278;18.192;2022-12-18T11:22:55;16.30;;;10.80;;
76795;SDS011;65745;50.278;18.192;2022-12-18T11:25:30;15.50;;;10.90;;
76795;SDS011;65745;50.278;18.192;2022-12-18T11:28:05;15.20;;;11.50;;
76795;SDS011;65745;50.278;18.192;2022-12-18T11:31:16;15.30;;;11.00;;
76795;SDS011;65745;50.278;18.192;2022-12-18T11:33:56;16.20;;;11.00;;
76795;SDS011;65745;50.278;18.192;2022-12-18T11:36:53;15.90;;;11.40;;
76795;SDS011;65745;50.278;18.192;2022-12-18T11:39:30;13.70;;;10.00;;
76795;SDS011;65745;50.278;18.192;2022-12-18T11:42:11;15.20;;;10.70;;
76795;SDS011;65745;50.278;18.192;2022-12-18T11:44:50;16.30;;;11.30;;
76795;SDS011;65745;50.278;18.192;2022-12-18T11:47:27;16.30;;;10.60;;
76795;SDS011;65745;50.278;18.192;2022-12-18T11:50:08;15.60;;;11.00;;
76795;SDS011;65745;50.278;18.192;2022-12-18T11:52:44;16.80;;;10.90;;
76795;SDS011;65745;50.278;18.192;2022-12-18T11:55:27;17.20;;;11.90;;
76795;SDS011;65745;50.278;18.192;2022-12-18T11:58:07;15.00;;;11.00;;
76795;SDS011;65745;50.278;18.192;2022-12-18T12:00:57;15.80;;;12.10;;
76795;SDS011;65745;50.278;18.192;2022-12-18T12:03:42;15.30;;;10.70;;
76795;SDS011;65745;50.278;18.192;2022-12-18T12:06:28;14.90;;;11.00;;
76795;SDS011;65745;50.278;18.192;2022-12-18T12:09:11;16.60;;;11.40;;
76795;SDS011;65745;50.278;18.192;2022-12-18T12:11:53;16.60;;;11.50;;
76795;SDS011;65745;50.278;18.192;2022-12-18T12:14:44;17.20;;;11.90;;
76795;SDS011;65745;50.278;18.192;2022-12-18T12:17:27;18.10;;;11.60;;
76795;SDS011;65745;50.278;18.192;2022-12-18T12:20:08;17.60;;;12.30;;
76795;SDS011;65745;50.278;18.192;2022-12-18T12:22:47;15.60;;;11.00;;
76795;SDS011;65745;50.278;18.192;2022-12-18T12:25:31;19.70;;;12.40;;
76795;SDS011;65745;50.278;18.192;2022-12-18T12:28:15;15.60;;;11.20;;
76795;SDS011;65745;50.278;18.192;2022-12-18T12:31:01;16.70;;;11.20;;
76795;SDS011;65745;50.278;18.192;2022-12-18T12:33:42;15.90;;;12.10;;
76795;SDS011;65745;50.278;18.192;2022-12-18T12:36:24;18.40;;;12.80;;
76795;SDS011;65745;50.278;18.192;2022-12-18T12:39:05;15.50;;;11.80;;
76795;SDS011;65745;50.278;18.192;2022-12-18T12:41:40;17.10;;;11.90;;
76795;SDS011;65745;50.278;18.192;2022-12-18T12:44:33;16.50;;;11.50;;
76795;SDS011;65745;50.278;18.192;2022-12-18T12:47:11;15.30;;;11.50;;
76795;SDS011;65745;50.278;18.192;2022-12-18T12:49:46;17.80;;;12.70;;
76795;SDS011;65745;50.278;18.192;2022-12-18T12:52:24;16.30;;;12.20;;
76795;SDS011;65745;50.278;18.192;2022-12-18T12:55:04;16.50;;;12.60;;
76795;SDS011;65745;50.278;18.192;2022-12-18T12:57:47;17.00;;;12.80;;
76795;SDS011;65745;50.278;18.192;2022-12-18T13:00:26;16.90;;;12.20;;
76795;SDS011;65745;50.278;18.192;2022-12-18T13:03:03;16.50;;;12.50;;
76795;SDS011;65745;50.278;18.192;2022-12-18T13:05:47;16.60;;;12.20;;
76795;SDS011;65745;50.278;18.192;2022-12-18T13:08:24;17.30;;;12.50;;
76795;SDS011;65745;50.278;18.192;2022-12-18T13:11:01;16.60;;;11.90;;
76795;SDS011;65745;50.278;18.192;2022-12-18T13:13:51;17.50;;;12.80;;
76795;SDS011;65745;50.278;18.192;2022-12-18T13:16:26;16.90;;;12.40;;
76795;SDS011;65745;50.278;18.192;2022-12-18T13:18:58;18.20;;;13.10;;
76795;SDS011;65745;50.278;18.192;2022-12-18T13:21:30;17.70;;;12.30;;
76795;SDS011;65745;50.278;18.192;2022-12-18T13:24:15;17.70;;;12.40;;
76795;SDS011;65745;50.278;18.192;2022-12-18T13:26:57;18.10;;;13.10;;
76795;SDS011;65745;50.278;18.192;2022-12-18T13:32:22;18.50;;;12.50;;
76795;SDS011;65745;50.278;18.192;2022-12-18T13:37:58;19.80;;;14.40;;
76795;SDS011;65745;50.278;18.192;2022-12-18T13:43:35;18.80;;;13.10;;
76795;SDS011;65745;50.278;18.192;2022-12-18T13:46:22;20.50;;;13.70;;
76795;SDS011;65745;50.278;18.192;2022-12-18T13:48:58;18.10;;;13.00;;
76795;SDS011;65745;50.278;18.192;2022-12-18T13:51:34;20.70;;;15.00;;
76795;SDS011;65745;50.278;18.192;2022-12-18T13:56:48;18.30;;;12.90;;
76795;SDS011;65745;50.278;18.192;2022-12-18T13:59:21;20.80;;;14.80;;
76795;SDS011;65745;50.278;18.192;2022-12-18T14:01:55;18.90;;;13.40;;
76795;SDS011;65745;50.278;18.192;2022-12-18T14:04:32;20.50;;;13.50;;
76795;SDS011;65745;50.278;18.192;2022-12-18T14:07:06;21.60;;;14.70;;
76795;SDS011;65745;50.278;18.192;2022-12-18T14:09:44;22.60;;;14.10;;
76795;SDS011;65745;50.278;18.192;2022-12-18T14:12:34;21.50;;;14.70;;
76795;SDS011;65745;50.278;18.192;2022-12-18T14:15:34;20.80;;;13.70;;
76795;SDS011;65745;50.278;18.192;2022-12-18T14:18:15;21.30;;;15.50;;
76795;SDS011;65745;50.278;18.192;2022-12-18T14:20:54;19.90;;;14.60;;
76795;SDS011;65745;50.278;18.192;2022-12-18T14:23:32;22.10;;;15.70;;
76795;SDS011;65745;50.278;18.192;2022-12-18T14:26:19;20.70;;;15.50;;
76795;SDS011;65745;50.278;18.192;2022-12-18T14:28:54;21.20;;;14.80;;
76795;SDS011;65745;50.278;18.192;2022-12-18T14:31:27;20.90;;;14.30;;
76795;SDS011;65745;50.278;18.192;2022-12-18T14:34:01;21.80;;;14.90;;
76795;SDS011;65745;50.278;18.192;2022-12-18T14:36:33;24.70;;;15.70;;
76795;SDS011;65745;50.278;18.192;2022-12-18T14:39:05;20.60;;;14.70;;
76795;SDS011;65745;50.278;18.192;2022-12-18T14:41:47;22.70;;;15.10;;
76795;SDS011;65745;50.278;18.192;2022-12-18T14:44:20;21.60;;;15.00;;
76795;SDS011;65745;50.278;18.192;2022-12-18T14:46:52;22.20;;;15.30;;
76795;SDS011;65745;50.278;18.192;2022-12-18T14:49:24;23.40;;;16.30;;
76795;SDS011;65745;50.278;18.192;2022-12-18T14:52:03;21.90;;;14.80;;
76795;SDS011;65745;50.278;18.192;2022-12-18T14:54:39;25.10;;;16.00;;
76795;SDS011;65745;50.278;18.192;2022-12-18T14:57:18;23.00;;;15.60;;
76795;SDS011;65745;50.278;18.192;2022-12-18T14:59:55;23.90;;;16.50;;
76795;SDS011;65745;50.278;18.192;2022-12-18T15:02:37;20.40;;;15.80;;
76795;SDS011;65745;50.278;18.192;2022-12-18T15:05:16;22.30;;;15.20;;
76795;SDS011;65745;50.278;18.192;2022-12-18T15:13:59;23.90;;;17.30;;
76795;SDS011;65745;50.278;18.192;2022-12-18T15:16:52;26.30;;;15.50;;
76795;SDS011;65745;50.278;18.192;2022-12-18T15:19:28;22.80;;;16.40;;
76795;SDS011;65745;50.278;18.192;2022-12-18T15:22:11;23.30;;;17.20;;
76795;SDS011;65745;50.278;18.192;2022-12-18T15:24:56;23.10;;;15.10;;
76795;SDS011;65745;50.278;18.192;2022-12-18T15:27:30;24.40;;;16.40;;
76795;SDS011;65745;50.278;18.192;2022-12-18T15:30:18;24.30;;;15.80;;
76795;SDS011;65745;50.278;18.192;2022-12-18T15:33:15;23.50;;;16.30;;
76795;SDS011;65745;50.278;18.192;2022-12-18T15:35:57;25.80;;;17.50;;